Time;durP1;ratioP1;P1;durP2;ratioP2;P2;SDS_P1;SDS_P2;PMS_P1;PMS_P2;Temp;Humidity;BMP_temperature;BMP_pressure;BME280_temperature;BME280_humidity;BME280_pressure;Samples;Min_cycle;Max_cycle;Signal;HPM_P1;HPM_P2
2023/12/03 00:00:33;;;;;;;12.93;5.95;;;1.70;99.90;;;1.29;nan;101362.50;5250591;28;20044;-48
2023/12/03 00:03:06;;;;;;;16.75;7.22;;;1.70;99.90;;;1.29;nan;101359.03;5256770;28;20059;-48
2023/12/03 00:05:38;;;;;;;15.27;6.68;;;1.70;99.90;;;1.29;nan;101364.19;5254592;28;20045;-47
2023/12/03 00:08:11;;;;;;;17.63;7.78;;;1.70;99.90;;;1.28;nan;101363.28;5242293;28;20049;-48
2023/12/03 00:10:44;;;;;;;15.60;6.28;;;1.70;99.90;;;1.28;nan;101371.00;5257919;28;20039;-48
2023/12/03 00:13:17;;;;;;;15.77;6.63;;;1.70;99.90;;;1.32;nan;101367.91;5254216;28;20051;-48
2023/12/03 00:15:50;;;;;;;15.32;5.80;;;1.70;99.90;;;1.34;nan;101368.03;5259194;28;20383;-48
2023/12/03 00:18:22;;;;;;;14.68;6.00;;;1.70;99.90;;;1.34;nan;101360.31;5240267;28;20049;-48
2023/12/03 00:20:54;;;;;;;15.32;6.13;;;1.70;99.90;;;1.35;nan;101369.81;5258821;28;20032;-48
2023/12/03 00:23:27;;;;;;;13.48;5.70;;;1.70;99.90;;;1.36;nan;101374.16;5249986;28;20040;-48
2023/12/03 00:25:59;;;;;;;13.48;6.13;;;1.70;99.90;;;1.35;nan;101373.28;5256073;28;20040;-48
2023/12/03 00:28:33;;;;;;;15.07;6.72;;;1.70;99.90;;;1.36;nan;101379.31;5256587;28;20052;-49
2023/12/03 00:31:06;;;;;;;17.60;6.63;;;1.70;99.90;;;1.35;nan;101369.81;5252356;28;20036;-48
2023/12/03 00:33:38;;;;;;;16.20;7.30;;;1.70;99.90;;;1.34;nan;101368.03;5257647;28;20056;-48
2023/12/03 00:36:12;;;;;;;16.33;6.45;;;1.70;99.90;;;1.33;nan;101368.81;5256907;28;20071;-48
2023/12/03 00:38:44;;;;;;;17.20;6.65;;;1.70;99.90;;;1.31;nan;101367.78;5257720;28;20047;-48
2023/12/03 00:41:16;;;;;;;16.27;5.97;;;1.70;99.90;;;1.29;nan;101372.78;5241524;28;20068;-48
2023/12/03 00:43:50;;;;;;;17.75;7.13;;;1.70;99.90;;;1.27;nan;101374.34;5251382;28;20060;-47
2023/12/03 00:46:23;;;;;;;15.77;6.40;;;1.70;99.90;;;1.25;nan;101375.88;5237619;28;20594;-49
2023/12/03 00:48:56;;;;;;;14.48;5.75;;;1.60;99.90;;;1.24;nan;101371.53;5254238;28;20055;-48
2023/12/03 00:51:28;;;;;;;16.10;6.22;;;1.60;99.90;;;1.23;nan;101371.38;5258801;28;20040;-49
2023/12/03 00:54:00;;;;;;;15.77;6.88;;;1.60;99.90;;;1.20;nan;101382.31;5259946;28;20416;-48
2023/12/03 00:56:33;;;;;;;15.05;6.28;;;1.60;99.90;;;1.18;nan;101383.88;5261116;28;20154;-47
2023/12/03 00:59:07;;;;;;;13.27;6.00;;;1.60;99.90;;;1.14;nan;101376.69;5251649;28;20045;-50
2023/12/03 01:01:40;;;;;;;16.10;6.10;;;1.60;99.90;;;1.12;nan;101388.50;5234927;28;20063;-48
2023/12/03 01:04:12;;;;;;;15.77;6.35;;;1.50;99.90;;;1.07;nan;101389.81;5259340;28;20490;-47
2023/12/03 01:06:46;;;;;;;17.38;6.43;;;1.50;99.90;;;1.08;nan;101386.44;5255820;28;20105;-48
2023/12/03 01:09:18;;;;;;;13.57;5.93;;;1.50;99.90;;;1.07;nan;101388.13;5243450;28;20048;-47
2023/12/03 01:11:54;;;;;;;16.77;7.32;;;1.50;99.90;;;1.07;nan;101382.09;5257062;28;20063;-47
2023/12/03 01:14:28;;;;;;;16.35;6.82;;;1.50;99.90;;;1.04;nan;101385.31;5242659;28;20044;-47
2023/12/03 01:17:00;;;;;;;14.95;6.95;;;1.50;99.90;;;1.03;nan;101382.59;5257846;28;20059;-48
2023/12/03 01:19:33;;;;;;;17.35;6.65;;;1.50;99.90;;;1.03;nan;101385.16;5259987;28;20040;-48
2023/12/03 01:22:05;;;;;;;14.52;6.03;;;1.40;99.90;;;1.04;nan;101394.66;5251983;28;20052;-49
2023/12/03 01:24:38;;;;;;;13.77;6.35;;;1.40;99.90;;;1.04;nan;101390.47;5250825;28;20453;-48
2023/12/03 01:27:10;;;;;;;14.73;6.47;;;1.50;99.90;;;1.05;nan;101399.06;5255369;28;20553;-48
2023/12/03 01:29:45;;;;;;;15.85;5.97;;;1.50;99.90;;;1.05;nan;101405.09;5250479;28;20117;-48
2023/12/03 01:34:22;;;;;;;13.82;5.15;;;1.50;99.90;;;1.06;100.00;101408.56;5258029;27;20924;-48
2023/12/03 01:36:54;;;;;;;14.82;6.07;;;1.50;99.90;;;1.09;100.00;101408.78;5213144;28;20056;-48
2023/12/03 01:39:26;;;;;;;16.42;6.25;;;1.50;99.90;;;1.10;100.00;101410.56;5213953;28;20396;-48
2023/12/03 01:41:59;;;;;;;14.15;5.80;;;1.50;99.90;;;1.13;100.00;101415.09;5218225;28;20061;-48
2023/12/03 01:44:31;;;;;;;18.13;6.50;;;1.50;99.90;;;1.11;100.00;101417.53;5217441;28;20091;-48
2023/12/03 01:47:04;;;;;;;15.95;6.18;;;1.50;99.90;;;1.11;100.00;101420.09;5209966;28;20199;-48
2023/12/03 01:49:38;;;;;;;17.52;6.40;;;1.50;99.90;;;1.12;100.00;101424.47;5204468;28;20119;-48
2023/12/03 01:52:11;;;;;;;14.05;6.03;;;1.50;99.90;;;1.13;100.00;101426.25;5224599;28;20050;-47
2023/12/03 01:54:45;;;;;;;13.73;5.40;;;1.50;99.90;;;1.15;100.00;101429.84;5223957;28;20144;-48
2023/12/03 01:57:17;;;;;;;15.30;6.50;;;1.50;99.90;;;1.17;100.00;101433.41;5229977;28;20068;-49
2023/12/03 01:59:50;;;;;;;15.90;6.55;;;1.50;99.90;;;1.20;100.00;101443.06;5216616;28;20484;-48
2023/12/03 02:02:22;;;;;;;16.80;6.70;;;1.60;99.90;;;1.24;100.00;101448.59;5225302;28;20049;-47
2023/12/03 02:04:56;;;;;;;14.95;6.47;;;1.60;99.90;;;1.25;100.00;101444.34;5213635;28;20463;-48
2023/12/03 02:07:28;;;;;;;15.15;6.88;;;1.60;99.90;;;1.25;100.00;101446.91;5209253;28;20466;-48
2023/12/03 02:10:01;;;;;;;12.40;5.57;;;1.60;99.90;;;1.25;100.00;101445.25;5218593;28;20073;-48
2023/12/03 02:12:34;;;;;;;14.07;7.00;;;1.60;99.90;;;1.26;100.00;101441.00;5211740;28;20521;-48
2023/12/03 02:15:10;;;;;;;13.85;5.45;;;1.60;99.90;;;1.28;100.00;101431.75;5225143;28;20045;-48
2023/12/03 02:17:43;;;;;;;14.02;5.93;;;1.70;99.90;;;1.29;100.00;101444.69;5209803;28;20041;-48
2023/12/03 02:20:17;;;;;;;14.52;5.30;;;1.70;99.90;;;1.29;100.00;101442.13;5226176;28;20041;-48
2023/12/03 02:23:00;;;;;;;14.73;5.68;;;1.70;99.90;;;1.29;100.00;101441.25;5228217;28;20048;-47
2023/12/03 02:25:33;;;;;;;14.05;5.78;;;1.70;99.90;;;1.29;100.00;101441.25;5206039;28;20061;-48
2023/12/03 02:28:05;;;;;;;16.80;7.25;;;1.60;99.90;;;1.26;100.00;101435.88;5214131;28;20587;-48
2023/12/03 02:30:38;;;;;;;18.52;6.70;;;1.60;99.90;;;1.25;100.00;101432.41;5233362;28;20044;-47
2023/12/03 02:33:10;;;;;;;16.48;6.40;;;1.60;99.90;;;1.22;100.00;101442.41;5225030;28;20049;-48
2023/12/03 02:35:43;;;;;;;17.73;7.30;;;1.60;99.90;;;1.23;100.00;101444.19;5217423;28;20492;-48
2023/12/03 02:38:16;;;;;;;17.02;6.28;;;1.60;99.90;;;1.22;100.00;101444.06;5214975;28;20048;-48
2023/12/03 02:40:49;;;;;;;17.63;6.32;;;1.60;99.90;;;1.22;100.00;101442.41;5222461;28;20503;-47
2023/12/03 02:43:21;;;;;;;14.73;5.85;;;1.60;99.90;;;1.21;100.00;101440.63;5226034;28;20063;-48
2023/12/03 02:45:53;;;;;;;14.68;5.88;;;1.60;99.90;;;1.23;100.00;101448.44;5212431;28;20065;-47
2023/12/03 02:48:26;;;;;;;14.75;7.07;;;1.60;99.90;;;1.24;100.00;101440.88;5219932;28;20063;-48
2023/12/03 02:50:58;;;;;;;15.90;6.40;;;1.60;99.90;;;1.20;100.00;101445.63;5212278;28;20076;-48
2023/12/03 02:53:32;;;;;;;15.50;5.90;;;1.60;99.90;;;1.17;100.00;101438.56;5218008;28;20044;-48
2023/12/03 02:56:06;;;;;;;18.08;7.28;;;1.60;99.90;;;1.13;100.00;101448.47;5209551;28;20819;-48
2023/12/03 02:58:38;;;;;;;19.35;6.78;;;1.60;99.90;;;1.10;100.00;101443.97;5219327;28;20053;-48
2023/12/03 03:01:10;;;;;;;14.95;6.75;;;1.50;99.90;;;1.08;100.00;101442.94;5201922;28;20452;-48
2023/12/03 03:03:43;;;;;;;15.70;6.97;;;1.50;99.90;;;1.06;100.00;101444.50;5212917;28;20045;-48
2023/12/03 03:06:15;;;;;;;14.75;6.38;;;1.50;99.90;;;1.05;100.00;101452.97;5208145;28;20041;-47
2023/12/03 03:08:49;;;;;;;15.68;5.82;;;1.50;99.90;;;1.02;100.00;101447.56;5217504;28;20475;-47
2023/12/03 03:11:22;;;;;;;15.93;6.82;;;1.50;99.90;;;1.00;100.00;101449.13;5210413;28;20488;-47
2023/12/03 03:13:54;;;;;;;14.90;6.00;;;1.50;99.90;;;0.98;100.00;101450.69;5190826;28;20045;-48
2023/12/03 03:16:27;;;;;;;15.75;6.40;;;1.40;99.90;;;0.99;100.00;101455.03;5184951;28;20509;-48
2023/12/03 03:18:59;;;;;;;15.55;6.30;;;1.40;99.90;;;0.98;100.00;101458.38;5206436;28;20057;-48
2023/12/03 03:21:31;;;;;;;16.50;6.60;;;1.40;99.90;;;0.98;100.00;101450.69;5197674;28;20054;-48
2023/12/03 03:24:06;;;;;;;17.75;6.47;;;1.40;99.90;;;0.96;100.00;101453.09;5188102;28;20046;-48
2023/12/03 03:26:40;;;;;;;15.25;5.47;;;1.40;99.90;;;0.95;100.00;101455.53;5200181;28;20103;-48
2023/12/03 03:29:12;;;;;;;12.95;5.47;;;1.30;99.90;;;0.94;100.00;101458.88;5211995;28;20100;-48
2023/12/03 03:31:46;;;;;;;13.75;5.95;;;1.30;99.90;;;0.94;100.00;101461.44;5212201;28;20524;-48
2023/12/03 03:34:18;;;;;;;13.82;5.57;;;1.30;99.90;;;0.93;100.00;101467.34;5214078;28;20083;-48
2023/12/03 03:36:50;;;;;;;15.55;6.82;;;1.30;99.90;;;0.94;100.00;101469.16;5202419;28;20061;-48
2023/12/03 03:39:24;;;;;;;14.75;5.55;;;1.40;99.90;;;0.93;100.00;101469.91;5196375;28;20088;-48
2023/12/03 03:41:56;;;;;;;15.60;6.05;;;1.30;99.90;;;0.93;100.00;101472.50;5205212;28;20053;-47
2023/12/03 03:44:29;;;;;;;13.05;5.38;;;1.30;99.90;;;0.93;100.00;101481.09;5198750;28;20140;-48
2023/12/03 03:47:01;;;;;;;15.85;6.03;;;1.30;99.90;;;0.95;100.00;101470.94;5211585;28;20045;-47
2023/12/03 03:49:33;;;;;;;17.35;5.72;;;1.30;99.90;;;0.94;100.00;101480.31;5201551;28;20053;-47
2023/12/03 03:52:07;;;;;;;12.43;5.72;;;1.30;99.90;;;0.94;100.00;101479.41;5192422;28;20092;-48
2023/12/03 03:54:42;;;;;;;13.75;5.65;;;1.30;99.90;;;0.93;100.00;101478.53;5193008;28;20072;-48
2023/12/03 03:57:14;;;;;;;16.08;6.22;;;1.30;99.90;;;0.94;100.00;101481.97;5200122;28;20088;-48
2023/12/03 03:59:47;;;;;;;15.40;5.97;;;1.30;99.90;;;0.93;100.00;101487.91;5207057;28;20408;-48
2023/12/03 04:02:19;;;;;;;14.60;6.18;;;1.30;99.90;;;0.94;100.00;101488.00;5213271;28;20046;-48
2023/12/03 04:04:51;;;;;;;13.05;5.85;;;1.30;99.90;;;0.96;100.00;101500.97;5206023;28;20045;-47
2023/12/03 04:07:24;;;;;;;16.52;5.85;;;1.30;99.90;;;0.97;100.00;101500.19;5200752;28;20046;-47
2023/12/03 04:09:57;;;;;;;16.60;6.03;;;1.30;99.90;;;1.02;100.00;101493.78;5199504;28;20516;-48
2023/12/03 04:12:30;;;;;;;16.85;6.45;;;1.40;99.90;;;1.00;100.00;101496.22;5199860;28;20053;-48
2023/12/03 04:15:02;;;;;;;15.82;6.05;;;1.40;99.90;;;0.95;100.00;101496.63;5203315;28;20038;-47
2023/12/03 04:17:34;;;;;;;15.95;6.18;;;1.40;99.90;;;0.93;100.00;101501.63;5197485;28;20057;-48
2023/12/03 04:20:09;;;;;;;14.60;5.70;;;1.30;99.90;;;0.94;100.00;101503.41;5207159;28;20054;-48
2023/12/03 04:22:41;;;;;;;13.98;5.47;;;1.30;99.90;;;0.93;100.00;101511.00;5204565;28;20136;-48
2023/12/03 04:25:15;;;;;;;14.32;5.50;;;1.30;99.90;;;0.92;100.00;101514.34;5207254;28;20424;-48
2023/12/03 04:27:47;;;;;;;16.33;5.95;;;1.30;99.90;;;0.92;100.00;101502.41;5206193;28;20041;-48
2023/12/03 04:30:20;;;;;;;14.00;5.10;;;1.30;99.90;;;0.90;100.00;101513.28;5208917;28;20068;-49
2023/12/03 04:32:52;;;;;;;14.75;5.25;;;1.30;99.90;;;0.89;100.00;101506.38;5211027;28;20470;-48
2023/12/03 04:35:24;;;;;;;14.23;5.85;;;1.30;99.90;;;0.87;100.00;101497.66;5209778;28;20735;-47
2023/12/03 04:37:57;;;;;;;14.93;5.57;;;1.30;99.90;;;0.86;100.00;101509.59;5200500;28;20053;-47
2023/12/03 04:40:31;;;;;;;15.77;6.25;;;1.30;99.90;;;0.85;100.00;101500.09;5213734;28;20531;-47
2023/12/03 04:43:03;;;;;;;16.45;5.50;;;1.30;99.90;;;0.87;100.00;101501.09;5204363;28;20428;-47
2023/12/03 04:45:35;;;;;;;12.15;5.20;;;1.30;99.90;;;0.89;100.00;101498.66;5216518;28;20146;-48
2023/12/03 04:48:08;;;;;;;16.70;5.57;;;1.30;99.90;;;0.89;100.00;101503.78;5215332;28;20436;-47
2023/12/03 04:50:39;;;;;;;15.73;6.00;;;1.30;99.90;;;0.87;100.00;101503.69;5215492;28;20052;-48
2023/12/03 04:53:11;;;;;;;12.70;4.53;;;1.30;99.90;;;0.89;100.00;101506.38;5202249;28;20476;-48
2023/12/03 04:55:45;;;;;;;12.25;4.82;;;1.30;99.90;;;0.93;100.00;101499.06;5210613;28;20378;-47
2023/12/03 04:58:17;;;;;;;13.13;4.82;;;1.30;99.90;;;0.97;100.00;101495.06;5212639;28;20054;-48
2023/12/03 05:00:50;;;;;;;13.05;4.40;;;1.30;99.90;;;0.99;100.00;101502.16;5215433;28;20107;-48
2023/12/03 05:03:22;;;;;;;12.65;5.57;;;1.40;99.90;;;1.00;100.00;101509.06;5215084;28;20046;-48
2023/12/03 05:05:55;;;;;;;12.98;5.40;;;1.40;99.90;;;0.99;100.00;101512.41;5209938;28;20084;-47
2023/12/03 05:08:27;;;;;;;14.35;5.05;;;1.40;99.90;;;1.01;100.00;101512.53;5211783;28;20052;-48
2023/12/03 05:11:04;;;;;;;13.45;4.55;;;1.40;99.90;;;1.01;100.00;101515.09;5200672;28;20041;-47
2023/12/03 05:13:37;;;;;;;13.00;4.72;;;1.40;99.90;;;1.00;100.00;101519.34;5199637;28;20095;-48
2023/12/03 05:16:10;;;;;;;13.98;4.75;;;1.40;99.90;;;1.04;100.00;101503.44;5210180;28;20060;-48
2023/12/03 05:18:43;;;;;;;14.10;4.97;;;1.40;99.90;;;1.02;100.00;101509.19;5194700;28;20056;-48
2023/12/03 05:21:16;;;;;;;13.38;5.15;;;1.40;99.90;;;1.02;100.00;101509.19;5214733;28;20053;-48
2023/12/03 05:23:48;;;;;;;13.35;4.55;;;1.40;99.90;;;1.02;100.00;101509.19;5194825;28;20041;-48
2023/12/03 05:26:22;;;;;;;14.07;5.15;;;1.40;99.90;;;1.01;100.00;101512.53;5207684;28;20097;-48
2023/12/03 05:28:54;;;;;;;15.85;5.30;;;1.40;99.90;;;1.02;100.00;101516.91;5196714;28;20056;-49
2023/12/03 05:31:27;;;;;;;16.10;4.55;;;1.40;99.90;;;1.00;100.00;101516.78;5214408;28;20056;-48
2023/12/03 05:33:59;;;;;;;14.85;5.25;;;1.40;99.90;;;1.03;100.00;101518.69;5199282;28;20037;-49
2023/12/03 05:36:31;;;;;;;13.07;5.03;;;1.40;99.90;;;1.02;100.00;101525.50;5211221;28;20076;-48
2023/12/03 05:39:04;;;;;;;14.40;5.65;;;1.40;99.90;;;1.05;100.00;101527.44;5199275;28;20479;-48
2023/12/03 05:41:40;;;;;;;14.35;4.97;;;1.40;99.90;;;1.05;100.00;101533.47;5198471;28;20048;-48
2023/12/03 05:44:13;;;;;;;15.02;5.05;;;1.40;99.90;;;1.02;100.00;101530.63;5214899;28;20068;-48
2023/12/03 05:46:45;;;;;;;12.90;5.07;;;1.40;99.90;;;1.01;100.00;101533.97;5197944;28;20045;-48
2023/12/03 05:49:17;;;;;;;13.98;5.05;;;1.40;99.90;;;1.04;100.00;101535.88;5206995;28;20054;-47
2023/12/03 05:51:50;;;;;;;13.02;5.30;;;1.40;99.90;;;1.01;100.00;101533.97;5211968;28;20511;-47
2023/12/03 05:54:22;;;;;;;13.50;4.85;;;1.40;99.90;;;1.02;100.00;101545.13;5194874;28;20075;-48
2023/12/03 05:56:56;;;;;;;13.88;5.10;;;1.40;99.90;;;1.06;100.00;101537.84;5216180;28;20045;-48
2023/12/03 05:59:28;;;;;;;12.25;5.25;;;1.50;99.90;;;1.06;100.00;101542.06;5208468;28;20065;-48
2023/12/03 06:02:00;;;;;;;12.52;4.93;;;1.40;99.90;;;1.05;100.00;101545.41;5215591;28;20049;-48
2023/12/03 06:04:33;;;;;;;11.05;5.45;;;1.40;99.90;;;1.08;100.00;101546.56;5214499;28;20033;-48
2023/12/03 06:07:05;;;;;;;11.93;4.60;;;1.40;99.90;;;1.06;100.00;101542.06;5215943;28;20064;-48
2023/12/03 06:09:38;;;;;;;15.85;5.10;;;1.40;99.90;;;1.05;100.00;101536.03;5190211;28;20045;-48
2023/12/03 06:12:11;;;;;;;13.50;4.82;;;1.40;99.90;;;1.03;100.00;101542.69;5210767;28;20053;-48
2023/12/03 06:14:44;;;;;;;14.70;5.60;;;1.40;99.90;;;0.98;100.00;101540.53;5210100;28;20045;-49
2023/12/03 06:17:16;;;;;;;10.90;4.35;;;1.40;99.90;;;0.95;100.00;101550.53;5214352;28;20115;-47
2023/12/03 06:19:49;;;;;;;12.52;4.78;;;1.30;99.90;;;0.91;100.00;101551.03;5205346;28;20050;-48
2023/12/03 06:22:21;;;;;;;13.27;4.38;;;1.30;99.90;;;0.87;100.00;101555.00;5217086;28;20157;-48
2023/12/03 06:24:53;;;;;;;16.17;5.20;;;1.30;99.90;;;0.82;100.00;101562.31;5215832;28;20072;-47
2023/12/03 06:27:27;;;;;;;14.00;4.70;;;1.20;99.90;;;0.78;100.00;101560.28;5212972;28;20062;-48
2023/12/03 06:29:59;;;;;;;14.07;5.55;;;1.20;99.90;;;0.73;100.00;101571.81;5216261;28;20421;-48
2023/12/03 06:32:32;;;;;;;13.77;5.15;;;1.10;99.90;;;0.70;100.00;101570.63;5209197;28;20049;-48
2023/12/03 06:35:05;;;;;;;13.40;4.70;;;1.10;99.90;;;0.68;100.00;101573.06;5189594;28;20579;-47
2023/12/03 06:37:37;;;;;;;16.38;5.28;;;1.10;99.90;;;0.70;100.00;101568.06;5190274;28;20041;-47
2023/12/03 06:40:11;;;;;;;12.73;5.28;;;1.10;99.90;;;0.71;100.00;101578.44;5197591;28;20054;-49
2023/12/03 06:42:45;;;;;;;13.88;5.13;;;1.10;99.90;;;0.74;100.00;101578.72;5186690;28;20049;-48
2023/12/03 06:45:18;;;;;;;12.38;4.55;;;1.10;99.90;;;0.78;100.00;101583.38;5195581;28;20056;-48
2023/12/03 06:47:50;;;;;;;13.05;4.65;;;1.20;99.90;;;0.80;100.00;101586.97;5197694;28;20535;-48
2023/12/03 06:50:22;;;;;;;14.65;5.47;;;1.20;99.90;;;0.78;100.00;101580.81;5194551;28;20049;-48
2023/12/03 06:52:55;;;;;;;13.48;5.60;;;1.20;99.90;;;0.77;100.00;101581.53;5202673;28;20055;-48
2023/12/03 06:55:27;;;;;;;14.77;5.68;;;1.20;99.90;;;0.79;100.00;101586.84;5218265;28;20042;-50
2023/12/03 06:58:01;;;;;;;14.10;5.38;;;1.20;99.90;;;0.79;100.00;101581.69;5199540;28;20413;-47
2023/12/03 07:00:33;;;;;;;13.52;5.30;;;1.20;99.90;;;0.78;100.00;101585.94;5203808;28;20069;-48
2023/12/03 07:03:06;;;;;;;15.50;5.57;;;1.20;99.90;;;0.75;100.00;101580.53;5194347;28;20119;-49
2023/12/03 07:05:38;;;;;;;14.00;5.38;;;1.20;99.90;;;0.74;100.00;101593.22;5209621;28;20421;-48
2023/12/03 07:08:11;;;;;;;14.35;5.32;;;1.20;99.90;;;0.71;100.00;101591.28;5200818;28;20115;-49
2023/12/03 07:10:43;;;;;;;15.93;5.60;;;1.10;99.90;;;0.70;100.00;101586.91;5214633;28;20137;-49
2023/12/03 07:13:17;;;;;;;15.90;5.70;;;1.10;99.90;;;0.70;100.00;101596.28;5216914;28;20045;-48
2023/12/03 07:15:50;;;;;;;16.38;5.25;;;1.10;99.90;;;0.70;100.00;101599.75;5192321;28;20065;-48
2023/12/03 07:18:22;;;;;;;15.60;5.55;;;1.10;99.90;;;0.69;100.00;101600.53;5187873;28;20057;-48
2023/12/03 07:20:54;;;;;;;15.63;5.50;;;1.10;99.90;;;0.70;100.00;101604.88;5196624;28;20072;-49
2023/12/03 07:23:27;;;;;;;17.10;5.70;;;1.10;99.90;;;0.70;100.00;101617.72;5215390;28;20061;-48
2023/12/03 07:25:59;;;;;;;15.88;6.03;;;1.20;99.90;;;0.72;100.00;101618.78;5187990;28;20457;-48
2023/12/03 07:28:33;;;;;;;17.17;5.72;;;1.10;99.90;;;0.75;100.00;101621.59;5215849;28;20299;-48
2023/12/03 07:31:06;;;;;;;14.32;5.63;;;1.20;99.90;;;0.77;100.00;101622.63;5193459;28;20053;-48
2023/12/03 07:33:38;;;;;;;14.35;5.68;;;1.20;99.90;;;0.80;100.00;101615.19;5218149;28;20056;-49
2023/12/03 07:36:12;;;;;;;14.65;5.43;;;1.20;99.90;;;0.84;100.00;101612.88;5197121;28;20416;-48
2023/12/03 07:38:45;;;;;;;17.83;6.03;;;1.20;99.90;;;0.82;100.00;101613.66;5202333;28;20037;-48
2023/12/03 07:41:17;;;;;;;16.60;6.40;;;1.20;99.90;;;0.81;100.00;101619.56;5194407;28;20042;-47
2023/12/03 07:43:51;;;;;;;14.35;5.72;;;1.20;99.90;;;0.80;100.00;101619.44;5192447;28;20448;-48
2023/12/03 07:46:23;;;;;;;17.17;6.95;;;1.20;99.90;;;0.78;100.00;101624.44;5195675;28;20060;-48
2023/12/03 07:48:56;;;;;;;17.70;5.65;;;1.20;99.90;;;0.76;100.00;101613.13;5196611;28;20054;-48
2023/12/03 07:51:30;;;;;;;16.33;5.82;;;1.20;99.90;;;0.77;100.00;101616.59;5214611;28;20132;-48
2023/12/03 07:54:03;;;;;;;18.02;6.90;;;1.20;99.90;;;0.78;100.00;101620.94;5193613;28;20054;-48
2023/12/03 07:56:36;;;;;;;15.90;6.53;;;1.20;99.90;;;0.71;100.00;101614.38;5211827;28;20053;-50
2023/12/03 07:59:11;;;;;;;19.83;7.03;;;1.10;99.90;;;0.68;100.00;101614.13;5196723;28;20099;-48
2023/12/03 08:01:43;;;;;;;20.08;7.03;;;1.10;99.90;;;0.65;100.00;101618.06;5212842;28;20054;-47
2023/12/03 08:04:15;;;;;;;20.13;6.80;;;1.10;99.90;;;0.65;100.00;101630.91;5189846;28;20045;-48
2023/12/03 08:06:48;;;;;;;15.70;6.03;;;1.10;99.90;;;0.65;100.00;101626.72;5194310;28;20049;-48
2023/12/03 08:09:20;;;;;;;19.08;7.00;;;1.10;99.90;;;0.62;100.00;101628.09;5195342;28;20049;-48
2023/12/03 08:11:53;;;;;;;19.35;7.00;;;1.00;99.90;;;0.63;100.00;101630.78;5196903;28;20446;-48
2023/12/03 08:14:27;;;;;;;16.85;5.90;;;1.10;99.90;;;0.65;100.00;101636.03;5195590;28;20057;-48
2023/12/03 08:17:00;;;;;;;16.45;6.13;;;1.10;99.90;;;0.69;100.00;101640.69;5191659;28;20769;-47
2023/12/03 08:19:32;;;;;;;17.35;6.65;;;1.10;99.90;;;0.73;100.00;101638.53;5192691;28;20052;-48
2023/12/03 08:22:04;;;;;;;17.05;6.47;;;1.20;99.90;;;0.75;100.00;101630.97;5171715;28;20050;-49
2023/12/03 08:24:37;;;;;;;18.20;6.55;;;1.20;99.90;;;0.77;100.00;101637.13;5226350;28;20036;-47
2023/12/03 08:27:09;;;;;;;21.10;6.70;;;1.20;99.90;;;0.74;100.00;101645.47;5230336;28;20068;-49
2023/12/03 08:29:43;;;;;;;17.27;6.15;;;1.20;99.90;;;0.72;100.00;101640.97;5251098;28;20546;-48
2023/12/03 08:32:15;;;;;;;16.98;6.60;;;1.20;99.90;;;0.76;100.00;101641.34;5251205;28;20502;-47
2023/12/03 08:34:47;;;;;;;16.77;6.25;;;1.20;99.90;;;0.80;100.00;101640.88;5249486;28;20037;-48
2023/12/03 08:37:19;;;;;;;18.30;5.70;;;1.20;99.90;;;0.79;100.00;101648.44;5239311;28;20052;-48
2023/12/03 08:39:51;;;;;;;20.42;7.55;;;1.20;99.90;;;0.76;100.00;101649.06;5253939;28;20049;-51
2023/12/03 08:42:24;;;;;;;18.58;6.35;;;1.20;99.90;;;0.76;100.00;101649.06;5246691;28;20044;-48
2023/12/03 08:44:57;;;;;;;18.80;6.93;;;1.20;99.90;;;0.76;100.00;101648.16;5250104;28;20048;-48
2023/12/03 08:47:30;;;;;;;16.52;6.70;;;1.20;99.90;;;0.77;100.00;101658.53;5237103;28;20070;-48
2023/12/03 08:50:04;;;;;;;17.20;7.32;;;1.20;99.90;;;0.77;100.00;101653.41;5254155;28;20049;-48
2023/12/03 08:52:36;;;;;;;19.75;7.45;;;1.30;99.90;;;0.78;100.00;101659.44;5235990;28;20040;-48
2023/12/03 08:55:09;;;;;;;15.55;6.38;;;1.20;99.90;;;0.80;100.00;101656.25;5248882;28;20049;-48
2023/12/03 08:57:42;;;;;;;17.67;6.53;;;1.30;99.90;;;0.81;100.00;101662.28;5237382;28;20415;-47
2023/12/03 09:00:17;;;;;;;19.45;6.85;;;1.30;99.90;;;0.84;100.00;101664.22;5257621;28;20056;-47
2023/12/03 09:02:49;;;;;;;17.15;6.20;;;1.30;99.90;;;0.86;100.00;101660.13;5249102;28;20055;-47
2023/12/03 09:05:22;;;;;;;19.27;7.03;;;1.30;99.90;;;0.88;100.00;101658.59;5248210;28;20048;-48
2023/12/03 09:07:54;;;;;;;14.88;5.65;;;1.30;99.90;;;0.89;100.00;101661.28;5246695;28;20037;-49
2023/12/03 09:10:26;;;;;;;13.23;4.68;;;1.40;99.90;;;0.94;100.00;101664.25;5256235;28;20051;-48
2023/12/03 09:12:59;;;;;;;19.23;6.30;;;1.40;99.90;;;1.01;100.00;101662.34;5257393;28;20052;-49
2023/12/03 09:15:33;;;;;;;15.68;5.55;;;1.50;99.90;;;1.06;100.00;101661.09;5256788;28;20653;-48
2023/12/03 09:18:05;;;;;;;15.32;6.05;;;1.50;99.90;;;1.11;100.00;101664.06;5237555;28;20569;-49
2023/12/03 09:20:37;;;;;;;20.95;7.80;;;1.50;99.90;;;1.14;100.00;101669.44;5231883;28;20535;-48
2023/12/03 09:23:10;;;;;;;19.60;6.28;;;1.50;99.90;;;1.17;100.00;101662.00;5256999;28;20052;-48
2023/12/03 09:25:42;;;;;;;14.45;5.13;;;1.60;99.90;;;1.22;100.00;101665.88;5253207;28;20049;-48
2023/12/03 09:28:15;;;;;;;17.58;7.03;;;1.60;99.90;;;1.26;100.00;101655.09;5231091;28;20063;-48
2023/12/03 09:30:49;;;;;;;18.40;6.65;;;1.60;99.90;;;1.27;100.00;101661.13;5246502;28;20045;-47
2023/12/03 09:33:22;;;;;;;17.25;5.88;;;1.70;99.90;;;1.35;100.00;101661.00;5247931;28;20056;-49
2023/12/03 09:35:55;;;;;;;17.15;6.25;;;1.70;99.90;;;1.39;100.00;101657.03;5252575;28;20048;-47
2023/12/03 09:38:28;;;;;;;17.88;6.55;;;1.80;99.90;;;1.47;100.00;101660.25;5245009;28;20048;-47
2023/12/03 09:41:07;;;;;;;17.30;6.32;;;1.80;99.90;;;1.51;100.00;101662.31;5233815;28;20056;-48
2023/12/03 09:43:43;;;;;;;15.82;7.10;;;1.90;99.90;;;1.61;100.00;101663.19;5240106;28;20048;-49
2023/12/03 09:46:17;;;;;;;17.95;5.93;;;1.90;99.90;;;1.74;100.00;101664.25;5248943;28;20077;-49
2023/12/03 09:48:51;;;;;;;13.38;5.50;;;2.00;99.90;;;1.86;100.00;101668.72;5250058;28;20045;-50
2023/12/03 09:51:24;;;;;;;18.70;6.22;;;2.10;99.90;;;2.01;100.00;101663.06;5236189;28;20056;-48
2023/12/03 09:53:59;;;;;;;18.38;6.32;;;2.20;99.90;;;2.04;100.00;101665.91;5249441;28;20040;-48
2023/12/03 09:56:32;;;;;;;16.45;5.63;;;2.30;99.90;;;2.15;100.00;101680.53;5253348;28;20044;-48
2023/12/03 09:59:06;;;;;;;15.20;5.78;;;2.40;99.90;;;2.23;100.00;101676.03;5254068;28;20048;-48
2023/12/03 10:01:40;;;;;;;17.15;6.13;;;2.50;99.90;;;2.25;100.00;101677.94;5239110;28;20044;-48
2023/12/03 10:04:12;;;;;;;16.23;5.63;;;2.50;99.90;;;2.27;100.00;101678.06;5250631;28;20045;-48
2023/12/03 10:06:45;;;;;;;29.33;10.10;;;2.50;99.90;;;2.21;100.00;101678.44;5254040;28;20052;-48
2023/12/03 10:09:17;;;;;;;25.13;8.40;;;2.50;99.90;;;2.24;100.00;101673.56;5257235;28;20044;-49
2023/12/03 10:11:56;;;;;;;19.48;7.72;;;2.50;99.90;;;2.25;100.00;101677.94;5235907;28;20049;-48
2023/12/03 10:14:29;;;;;;;17.58;6.13;;;2.50;99.90;;;2.36;100.00;101676.25;5253683;28;20055;-48
2023/12/03 10:17:03;;;;;;;18.00;6.55;;;2.60;99.90;;;2.38;100.00;101683.31;5254452;28;20052;-49
2023/12/03 10:19:36;;;;;;;16.23;6.35;;;2.60;99.90;;;2.41;100.00;101683.59;5257109;28;20058;-47
2023/12/03 10:22:08;;;;;;;13.18;5.50;;;2.70;99.90;;;2.42;100.00;101680.22;5253709;28;20048;-48
2023/12/03 10:24:47;;;;;;;20.02;7.40;;;2.70;99.90;;;2.43;100.00;101674.31;5252690;28;20075;-48
2023/12/03 10:27:20;;;;;;;21.73;8.77;;;2.70;99.90;;;2.38;100.00;101673.03;5240304;28;20045;-48
2023/12/03 10:29:52;;;;;;;17.67;6.70;;;2.70;99.90;;;2.40;100.00;101676.59;5238986;28;20701;-49
2023/12/03 10:32:28;;;;;;;22.00;8.63;;;2.70;99.90;;;2.40;100.00;101666.31;5256857;28;20184;-48
2023/12/03 10:35:00;;;;;;;17.52;6.45;;;2.70;99.90;;;2.40;100.00;101660.28;5250680;28;20416;-48
2023/12/03 10:37:32;;;;;;;20.00;7.60;;;2.70;99.90;;;2.39;100.00;101658.47;5253579;28;20061;-49
2023/12/03 10:40:07;;;;;;;17.30;7.13;;;2.70;99.90;;;2.39;100.00;101651.66;5235169;28;20061;-49